createdAt,value
2023-02-09T00:03:23.965Z,103035.41
2023-02-09T00:06:51.899Z,103032.02
2023-02-09T00:10:19.799Z,103032.52
2023-02-09T00:13:47.729Z,103027.58
2023-02-09T00:17:15.797Z,103029.28
2023-02-09T00:20:44.157Z,103034.38
2023-02-09T00:24:11.817Z,103033.98
2023-02-09T00:27:00.629Z,103027.56
2023-02-09T00:30:28.732Z,103028.63
2023-02-09T00:33:56.578Z,103027.67
2023-02-09T00:37:24.593Z,103033.41
2023-02-09T00:40:13.673Z,103026.14
2023-02-09T00:43:41.539Z,103024.02
2023-02-09T00:47:09.398Z,103024.35
2023-02-09T00:50:37.485Z,103030.40
2023-02-09T00:54:05.533Z,103030.61
2023-02-09T00:57:33.563Z,103031.38
2023-02-09T01:00:41.514Z,103028.77
2023-02-09T01:04:09.277Z,103021.20
2023-02-09T01:07:37.034Z,103016.02
2023-02-09T01:11:04.944Z,103013.80
2023-02-09T01:14:13.176Z,103015.73
2023-02-09T01:17:41.043Z,103009.27
2023-02-09T01:21:09.391Z,103009.52
2023-02-09T01:24:37.574Z,103005.64
2023-02-09T01:27:46.406Z,103010.39
2023-02-09T01:31:14.638Z,103011.27
2023-02-09T01:34:42.626Z,103005.52
2023-02-09T01:38:10.374Z,103004.08
2023-02-09T01:40:39.836Z,103002.64
2023-02-09T01:44:08.006Z,103002.02
2023-02-09T01:47:35.733Z,103004.13
2023-02-09T01:51:03.511Z,102992.04
2023-02-09T01:54:11.716Z,102997.12
2023-02-09T01:57:39.478Z,102998.24
2023-02-09T02:01:07.500Z,102996.96
2023-02-09T02:04:35.225Z,102990.49
2023-02-09T02:08:03.182Z,102991.47
2023-02-09T02:11:31.347Z,102990.46
2023-02-09T02:14:59.507Z,102996.33
2023-02-09T02:18:27.502Z,102997.09
2023-02-09T02:21:55.479Z,102992.48
2023-02-09T02:24:44.880Z,102992.27
2023-02-09T02:28:13.213Z,102990.41
2023-02-09T02:31:41.205Z,102986.67
2023-02-09T02:35:09.362Z,102982.56
2023-02-09T02:38:37.180Z,102980.73
2023-02-09T02:42:05.009Z,102978.05
2023-02-09T02:45:32.921Z,102974.55
2023-02-09T02:49:00.791Z,102978.30
2023-02-09T02:52:28.667Z,102970.34
2023-02-09T02:55:56.646Z,102965.39
2023-02-09T02:59:04.983Z,102968.22
2023-02-09T03:02:33.089Z,102967.38
2023-02-09T03:06:00.968Z,102966.16
2023-02-09T03:09:28.742Z,102959.95
2023-02-09T03:12:56.689Z,102957.56
2023-02-09T03:16:24.647Z,102954.98
2023-02-09T03:19:52.390Z,102950.52
2023-02-09T03:23:20.203Z,102947.00
2023-02-09T03:26:47.993Z,102943.70
2023-02-09T03:30:15.845Z,102948.00
2023-02-09T03:33:43.641Z,102949.48
2023-02-09T03:37:11.396Z,102942.37
2023-02-09T03:40:39.292Z,102944.87
2023-02-09T03:44:07.205Z,102944.31
2023-02-09T03:47:34.901Z,102936.95
2023-02-09T03:51:02.784Z,102936.14
2023-02-09T03:54:30.567Z,102937.04
2023-02-09T03:57:58.422Z,102940.05
2023-02-09T04:01:08.312Z,102942.94
2023-02-09T04:03:56.624Z,102945.95
2023-02-09T04:07:24.373Z,102949.57
2023-02-09T04:10:51.917Z,102947.20
2023-02-09T04:14:19.918Z,102945.67
2023-02-09T04:17:50.730Z,102941.89
2023-02-09T04:21:16.155Z,102940.20
2023-02-09T04:24:25.520Z,102942.48
2023-02-09T04:27:53.126Z,102941.92
2023-02-09T04:31:02.194Z,102941.71
2023-02-09T04:34:29.931Z,102943.79
2023-02-09T04:37:57.698Z,102944.42
2023-02-09T04:41:06.205Z,102945.59
2023-02-09T04:44:34.065Z,102944.03
2023-02-09T04:48:02.436Z,102941.83
2023-02-09T04:51:11.089Z,102944.58
2023-02-09T04:54:19.593Z,102945.60
2023-02-09T04:57:29.223Z,102944.19
2023-02-09T05:00:57.343Z,102942.05
2023-02-09T05:04:25.189Z,102942.52
2023-02-09T05:07:34.088Z,102938.40
2023-02-09T05:11:02.294Z,102937.83
2023-02-09T05:14:30.098Z,102943.77
2023-02-09T05:17:57.859Z,102946.39
2023-02-09T05:21:26.326Z,102951.29
2023-02-09T05:25:03.651Z,102952.80
2023-02-09T05:28:31.473Z,102948.89
2023-02-09T05:31:43.521Z,102953.75
2023-02-09T05:35:11.160Z,102952.48
2023-02-09T05:38:39.182Z,102954.03
2023-02-09T05:42:07.344Z,102956.49
2023-02-09T05:45:35.746Z,102956.10
2023-02-09T05:48:43.935Z,102957.09
2023-02-09T05:52:12.026Z,102960.42
2023-02-09T05:55:20.641Z,102965.11
2023-02-09T05:58:28.587Z,102967.21
2023-02-09T06:01:56.390Z,102964.71
2023-02-09T06:05:24.200Z,102970.45
2023-02-09T06:08:52.549Z,102971.30
2023-02-09T06:12:20.123Z,102975.95
2023-02-09T06:15:48.044Z,102984.73
2023-02-09T06:19:15.798Z,102990.02
2023-02-09T06:22:43.772Z,102992.38
2023-02-09T06:26:11.493Z,102993.29
2023-02-09T06:29:39.763Z,102994.33
2023-02-09T06:32:48.938Z,102996.47
2023-02-09T06:35:18.240Z,102992.72
2023-02-09T06:38:46.008Z,102999.36
2023-02-09T06:41:36.105Z,102998.42
2023-02-09T06:45:04.160Z,102995.77
2023-02-09T06:48:32.611Z,103002.56
2023-02-09T06:52:00.300Z,103004.43
2023-02-09T06:55:27.966Z,103007.20
2023-02-09T06:58:55.870Z,103002.08
2023-02-09T07:02:23.770Z,103003.46
2023-02-09T07:05:51.740Z,103004.15
2023-02-09T07:09:19.873Z,103005.30
2023-02-09T07:12:47.691Z,103007.77
2023-02-09T07:16:15.720Z,103010.08
2023-02-09T07:19:24.291Z,103009.89
2023-02-09T07:22:52.119Z,103007.92
2023-02-09T07:26:20.266Z,103010.02
2023-02-09T07:29:27.823Z,103011.10
2023-02-09T07:32:55.549Z,103011.85
2023-02-09T07:36:23.568Z,103016.84
2023-02-09T07:39:51.542Z,103014.60
2023-02-09T07:43:19.366Z,103014.53
2023-02-09T07:46:47.263Z,103010.85
2023-02-09T07:50:15.057Z,103010.41
2023-02-09T07:53:42.831Z,103007.11
2023-02-09T07:57:10.692Z,103007.34
2023-02-09T08:00:38.603Z,102999.05
2023-02-09T08:04:06.620Z,102992.70
2023-02-09T08:07:34.456Z,102992.66
2023-02-09T08:11:02.521Z,102996.31
2023-02-09T08:14:30.295Z,102998.63
2023-02-09T08:17:58.639Z,103000.07
2023-02-09T08:21:26.647Z,103000.79
2023-02-09T08:24:54.793Z,103003.98
2023-02-09T08:28:34.880Z,102999.47
2023-02-09T08:31:51.815Z,102999.54
2023-02-09T08:35:19.515Z,102994.15
2023-02-09T08:38:47.317Z,102995.58
2023-02-09T08:42:15.359Z,102995.48
2023-02-09T08:45:43.256Z,102991.45
2023-02-09T08:49:10.875Z,102988.73
2023-02-09T08:52:38.751Z,102988.41
2023-02-09T08:55:48.236Z,102981.73
2023-02-09T08:59:15.343Z,102987.45
2023-02-09T09:02:04.786Z,102987.13
2023-02-09T09:05:32.575Z,102982.19
2023-02-09T09:08:41.000Z,102982.61
2023-02-09T09:12:08.975Z,102978.21
2023-02-09T09:15:36.653Z,102972.41
2023-02-09T09:19:04.432Z,102968.86
2023-02-09T09:22:32.204Z,102972.44
2023-02-09T09:25:21.725Z,102977.61
2023-02-09T09:28:49.564Z,102975.67
2023-02-09T09:31:58.932Z,102973.55
2023-02-09T09:35:26.727Z,102972.30
2023-02-09T09:38:56.437Z,102971.05
2023-02-09T09:42:22.296Z,102967.33
2023-02-09T09:45:50.621Z,102962.52
2023-02-09T09:49:18.276Z,102959.29
2023-02-09T09:52:46.634Z,102952.66
2023-02-09T09:56:14.607Z,102944.89
2023-02-09T09:59:42.748Z,102943.08
2023-02-09T10:02:52.610Z,102940.23
2023-02-09T10:06:01.390Z,102935.60
2023-02-09T10:09:29.547Z,102928.19
2023-02-09T10:12:57.542Z,102927.80
2023-02-09T10:16:25.532Z,102926.45
2023-02-09T10:19:55.101Z,102922.15
2023-02-09T10:23:22.602Z,102922.70
2023-02-09T10:26:50.597Z,102918.23
2023-02-09T10:30:19.009Z,102909.39
2023-02-09T10:33:46.700Z,102905.56
2023-02-09T10:37:14.542Z,102906.70
2023-02-09T10:40:42.660Z,102903.05
2023-02-09T10:44:10.464Z,102903.33
2023-02-09T10:47:38.395Z,102899.20
2023-02-09T10:51:06.492Z,102896.34
2023-02-09T10:54:34.286Z,102894.31
2023-02-09T10:58:02.300Z,102892.95
2023-02-09T11:01:10.774Z,102889.23
2023-02-09T11:04:38.984Z,102884.34
2023-02-09T11:08:07.395Z,102877.22
2023-02-09T11:11:35.306Z,102876.34
2023-02-09T11:15:03.204Z,102873.36
2023-02-09T11:18:31.234Z,102865.52
2023-02-09T11:21:39.874Z,102864.42
2023-02-09T11:25:07.712Z,102864.79
2023-02-09T11:28:35.610Z,102865.02
2023-02-09T11:32:03.816Z,102860.06
2023-02-09T11:35:31.575Z,102859.03
2023-02-09T11:38:59.425Z,102862.77
2023-02-09T11:42:27.261Z,102859.63
2023-02-09T11:45:54.972Z,102854.98
2023-02-09T11:49:22.967Z,102853.20
2023-02-09T11:52:51.323Z,102851.80
2023-02-09T11:56:19.195Z,102849.30
2023-02-09T11:59:47.145Z,102847.03
2023-02-09T12:03:03.779Z,102835.59
2023-02-09T12:06:32.190Z,102829.59
2023-02-09T12:09:59.993Z,102827.84
2023-02-09T12:13:27.944Z,102821.54
2023-02-09T12:16:56.223Z,102809.98
2023-02-09T12:20:19.725Z,102810.55
2023-02-09T12:23:48.259Z,102810.82
2023-02-09T12:27:16.058Z,102807.48
2023-02-09T12:30:44.413Z,102804.42
2023-02-09T12:34:11.725Z,102805.83
2023-02-09T12:37:27.240Z,102804.98
2023-02-09T12:40:49.258Z,102801.52
2023-02-09T12:44:17.182Z,102791.47
2023-02-09T12:47:44.860Z,102787.66
2023-02-09T12:51:15.709Z,102787.31
2023-02-09T12:54:43.561Z,102783.77
2023-02-09T12:58:11.517Z,102778.86
2023-02-09T13:01:39.334Z,102779.68
2023-02-09T13:05:07.898Z,102776.91
2023-02-09T13:08:35.810Z,102771.30
2023-02-09T13:11:44.936Z,102768.27
2023-02-09T13:15:12.886Z,102762.93
2023-02-09T13:18:40.812Z,102759.56
2023-02-09T13:22:08.624Z,102754.23
2023-02-09T13:25:31.711Z,102754.89
2023-02-09T13:29:06.029Z,102752.33
2023-02-09T13:32:27.367Z,102750.79
2023-02-09T13:35:55.137Z,102741.70
2023-02-09T13:39:23.246Z,102735.16
2023-02-09T13:42:31.133Z,102737.48
2023-02-09T13:45:58.919Z,102735.66
2023-02-09T13:49:26.806Z,102732.01
2023-02-09T13:52:54.743Z,102733.44
2023-02-09T13:56:22.812Z,102731.65
2023-02-09T13:59:50.717Z,102730.14
2023-02-09T14:03:02.595Z,102728.29
2023-02-09T14:06:30.592Z,102726.52
2023-02-09T14:09:39.835Z,102729.48
2023-02-09T14:13:16.110Z,102721.23
2023-02-09T14:16:53.165Z,102720.92
2023-02-09T14:20:12.029Z,102716.62
2023-02-09T14:23:39.943Z,102710.20
2023-02-09T14:27:07.692Z,102707.20
2023-02-09T14:30:36.043Z,102705.77
2023-02-09T14:34:04.134Z,102698.38
2023-02-09T14:37:32.314Z,102697.30
2023-02-09T14:41:00.259Z,102694.23
2023-02-09T14:44:28.154Z,102694.73
2023-02-09T14:47:56.041Z,102692.55
2023-02-09T14:51:23.799Z,102699.08
2023-02-09T14:54:51.651Z,102698.17
2023-02-09T14:58:19.501Z,102694.25
2023-02-09T15:01:47.283Z,102695.33
2023-02-09T15:05:15.401Z,102694.20
2023-02-09T15:08:43.054Z,102697.52
2023-02-09T15:12:11.260Z,102696.98
2023-02-09T15:15:39.297Z,102694.89
2023-02-09T15:18:48.421Z,102694.84
2023-02-09T15:22:16.305Z,102692.11
2023-02-09T15:25:44.734Z,102691.29
2023-02-09T15:29:12.306Z,102691.89
2023-02-09T15:32:40.260Z,102693.75
2023-02-09T15:36:08.469Z,102692.70
2023-02-09T15:39:36.349Z,102694.81
2023-02-09T15:43:06.547Z,102701.05
2023-02-09T15:46:34.838Z,102700.13
2023-02-09T15:50:02.872Z,102701.86
2023-02-09T15:53:30.796Z,102702.55
2023-02-09T15:56:59.077Z,102708.67
2023-02-09T16:00:26.975Z,102705.77
2023-02-09T16:03:58.402Z,102706.52
2023-02-09T16:07:23.929Z,102710.86
2023-02-09T16:10:52.467Z,102710.73
2023-02-09T16:14:20.201Z,102709.06
2023-02-09T16:17:48.057Z,102710.73
2023-02-09T16:21:15.851Z,102708.77
2023-02-09T16:24:43.889Z,102703.98
2023-02-09T16:28:11.726Z,102702.81
2023-02-09T16:31:20.899Z,102706.78
2023-02-09T16:34:48.988Z,102708.75
2023-02-09T16:38:17.187Z,102706.64
2023-02-09T16:41:45.199Z,102705.73
2023-02-09T16:45:13.717Z,102706.27
2023-02-09T16:48:21.821Z,102710.20
2023-02-09T16:51:49.956Z,102709.16
2023-02-09T16:55:17.780Z,102706.33
2023-02-09T16:58:45.586Z,102700.48
2023-02-09T17:02:14.343Z,102705.77
2023-02-09T17:05:41.886Z,102700.31
2023-02-09T17:09:09.741Z,102703.73
2023-02-09T17:12:37.696Z,102706.59
2023-02-09T17:16:05.598Z,102705.61
2023-02-09T17:19:47.093Z,102706.52
2023-02-09T17:22:41.760Z,102716.09
2023-02-09T17:25:50.517Z,102715.42
2023-02-09T17:29:09.140Z,102710.30
2023-02-09T17:32:37.046Z,102710.52
2023-02-09T17:39:32.777Z,102712.46
2023-02-09T17:43:00.646Z,102705.73
2023-02-09T17:46:09.692Z,102708.38
2023-02-09T17:49:37.452Z,102711.92
2023-02-09T17:53:05.676Z,102702.88
2023-02-09T17:56:33.533Z,102707.83
2023-02-09T18:00:01.558Z,102711.39
2023-02-09T18:03:29.393Z,102712.10
2023-02-09T18:06:57.942Z,102720.98
2023-02-09T18:10:25.308Z,102722.73
2023-02-09T18:13:53.160Z,102718.84
2023-02-09T18:17:20.996Z,102716.20
2023-02-09T18:20:29.056Z,102717.60
2023-02-09T18:23:37.861Z,102717.77
2023-02-09T18:27:05.822Z,102715.83
2023-02-09T18:30:18.077Z,102722.20
2023-02-09T18:33:45.912Z,102722.34
2023-02-09T18:37:13.836Z,102729.73
2023-02-09T18:40:42.053Z,102722.63
2023-02-09T18:44:10.286Z,102721.91
2023-02-09T18:47:40.189Z,102716.23
2023-02-09T18:51:08.190Z,102713.39
2023-02-09T18:54:41.453Z,102720.06
2023-02-09T18:58:09.624Z,102716.01
2023-02-09T19:01:37.563Z,102717.77
2023-02-09T19:05:05.430Z,102717.58
2023-02-09T19:08:32.971Z,102710.89
2023-02-09T19:12:00.839Z,102712.52
2023-02-09T19:15:28.825Z,102714.65
2023-02-09T19:18:56.705Z,102715.88
2023-02-09T19:22:24.667Z,102716.75
2023-02-09T19:25:33.089Z,102724.36
2023-02-09T19:29:01.229Z,102722.71
2023-02-09T19:32:29.554Z,102714.74
2023-02-09T19:35:57.465Z,102722.13
2023-02-09T19:39:25.324Z,102727.23
2023-02-09T19:42:53.525Z,102721.94
2023-02-09T19:46:21.573Z,102721.39
2023-02-09T19:49:49.229Z,102729.13
2023-02-09T19:53:17.773Z,102726.31
2023-02-09T19:56:27.056Z,102729.64
2023-02-09T19:59:54.864Z,102732.64
2023-02-09T20:03:23.206Z,102732.84
2023-02-09T20:06:50.973Z,102729.71
2023-02-09T20:10:00.972Z,102735.36
2023-02-09T20:13:26.959Z,102742.80
2023-02-09T20:16:15.868Z,102739.41
2023-02-09T20:19:43.579Z,102736.41
2023-02-09T20:22:51.296Z,102738.86
2023-02-09T20:26:19.468Z,102738.11
2023-02-09T20:29:47.493Z,102736.31
2023-02-09T20:32:56.609Z,102736.31
2023-02-09T20:36:03.907Z,102741.63
2023-02-09T20:39:31.854Z,102741.29
2023-02-09T20:42:39.187Z,102742.16
2023-02-09T20:45:47.659Z,102741.10
2023-02-09T20:48:56.561Z,102745.16
2023-02-09T20:52:24.903Z,102747.42
2023-02-09T20:55:52.689Z,102741.73
2023-02-09T20:58:48.579Z,102739.05
2023-02-09T21:02:16.302Z,102738.17
2023-02-09T21:05:43.998Z,102741.01
2023-02-09T21:08:31.709Z,102742.81
2023-02-09T21:11:36.931Z,102741.23
2023-02-09T21:14:41.173Z,102739.40
2023-02-09T21:17:39.152Z,102742.73
2023-02-09T21:20:47.399Z,102739.69
2023-02-09T21:23:41.245Z,102735.95
2023-02-09T21:26:29.046Z,102731.52
2023-02-09T21:29:27.190Z,102725.66
2023-02-09T21:31:59.661Z,102725.58
2023-02-09T21:35:27.800Z,102728.66
2023-02-09T21:38:55.969Z,102728.77
2023-02-09T21:42:23.908Z,102727.70
2023-02-09T21:45:52.149Z,102729.95
2023-02-09T21:49:20.205Z,102728.86
2023-02-09T21:52:49.059Z,102724.05
2023-02-09T21:56:17.210Z,102725.75
2023-02-09T21:59:44.876Z,102726.63
2023-02-09T22:02:52.911Z,102723.09
2023-02-09T22:06:21.292Z,102727.17
2023-02-09T22:09:49.192Z,102728.38
2023-02-09T22:13:17.180Z,102724.86
2023-02-09T22:16:45.002Z,102720.91
2023-02-09T22:20:13.309Z,102723.52
2023-02-09T22:23:41.511Z,102722.65
2023-02-09T22:27:11.984Z,102731.48
2023-02-09T22:30:04.774Z,102737.77
2023-02-09T22:33:35.158Z,102734.39
2023-02-09T22:37:03.229Z,102738.43
2023-02-09T22:40:12.321Z,102737.02
2023-02-09T22:43:41.002Z,102732.84
2023-02-09T22:46:49.463Z,102738.46
2023-02-09T22:50:17.713Z,102741.11
2023-02-09T22:53:48.394Z,102741.67
2023-02-09T22:57:16.260Z,102737.44
2023-02-09T23:00:45.896Z,102731.45
2023-02-09T23:04:13.791Z,102731.05
2023-02-09T23:06:57.533Z,102729.61
2023-02-09T23:10:25.365Z,102724.88
2023-02-09T23:14:08.543Z,102727.16
2023-02-09T23:17:22.568Z,102722.05
2023-02-09T23:20:52.070Z,102724.86
2023-02-09T23:24:21.058Z,102724.73
2023-02-09T23:27:50.372Z,102723.70
2023-02-09T23:31:18.590Z,102729.70
2023-02-09T23:34:47.097Z,102730.75
2023-02-09T23:37:55.973Z,102722.40
2023-02-09T23:41:23.789Z,102726.80
2023-02-09T23:44:52.666Z,102726.64
2023-02-09T23:48:20.898Z,102720.80
2023-02-09T23:51:48.612Z,102726.59
2023-02-09T23:55:16.432Z,102726.42
2023-02-09T23:58:44.611Z,102721.46
